Data for 04/22/2005

Time Sea-Level Adjusted Pressure Absolute Pressure Temperature Relative Humidity Dew Point   
(mb) (inHg) (mb) (inHg) (C) (F) (%) (C) (F)
00:05 1028 30.36 858 25.34 1.9 35.5 91 0.7 33.2
00:10 1028 30.36 857 25.31 2 35.6 91 0.7 33.3
00:15 1028 30.36 858 25.34 2 35.5 92 0.7 33.3
00:20 1028 30.36 858 25.34 2 35.6 91 0.7 33.3
00:25 1028 30.36 858 25.34 1.9 35.4 92 0.7 33.2
00:30 1028 30.36 858 25.34 1.8 35.3 92 0.7 33.3
00:35 1028 30.36 858 25.34 1.9 35.4 92 0.7 33.2
00:40 1028 30.36 858 25.34 1.9 35.3 91 0.6 33
00:45 1028 30.36 858 25.34 2 35.6 92 0.9 33.5
00:50 1028 30.36 858 25.34 2.1 35.8 91 0.9 33.6
00:55 1028 30.36 858 25.34 2.2 36 91 0.9 33.6
01:00 1028 30.36 858 25.34 2.2 35.9 92 0.9 33.7
01:05 1028 30.36 858 25.34 2 35.6 91 0.6 33.1
01:10 1029 30.39 858 25.34 1.6 34.9 93 0.6 33
01:15 1029 30.39 858 25.34 1.5 34.8 94 0.6 33.1
01:20 1029 30.39 858 25.34 1.8 35.2 94 0.9 33.6
01:25 1029 30.39 858 25.34 1.8 35.2 92 0.6 33
01:30 1029 30.39 858 25.34 1.1 34.1 95 0.4 32.6
01:35 1029 30.39 858 25.34 0.9 33.6 95 0.2 32.3
01:40 1029 30.39 858 25.34 0.9 33.7 95 0.2 32.3
01:45 1029 30.39 858 25.34 1 33.8 94 0.2 32.4
01:50 1029 30.39 858 25.34 1 33.8 94 0.2 32.4
01:55 1029 30.39 858 25.34 1.1 33.9 94 0.1 32.2
02:00 1029 30.39 858 25.34 1 33.9 94 0.2 32.3
02:05 1029 30.39 858 25.34 1.1 34 94 0.2 32.4
02:10 1029 30.39 858 25.34 1.2 34.1 94 0.3 32.5
02:15 1029 30.39 858 25.34 1.2 34.2 95 0.4 32.8
02:20 1029 30.39 858 25.34 1.5 34.7 93 0.5 32.9
02:25 1029 30.39 858 25.34 1.6 34.9 93 0.6 33.1
02:30 1029 30.39 858 25.34 1.5 34.7 93 0.5 32.9
02:35 1029 30.39 858 25.34 1.6 34.9 93 0.5 32.9
02:40 1029 30.39 858 25.34 1.3 34.3 95 0.5 32.9
02:45 1029 30.39 858 25.34 1 33.8 96 0.4 32.7
02:50 1029 30.39 858 25.34 1.1 33.9 96 0.4 32.8
02:55 1029 30.39 858 25.34 1.2 34.1 95 0.5 32.9
03:00 1029 30.39 858 25.34 1.2 34.2 95 0.5 32.9
03:05 1029 30.39 858 25.34 1.3 34.3 95 0.5 33
03:10 1029 30.39 858 25.34 1.2 34.1 95 0.5 32.9
03:15 1029 30.39 858 25.34 1 33.8 95 0.3 32.6
03:20 1029 30.39 858 25.34 0.9 33.7 96 0.3 32.6
03:25 1029 30.39 858 25.34 0.8 33.5 96 0.3 32.5
03:30 1029 30.39 858 25.34 0.8 33.5 96 0.3 32.5
03:35 1029 30.39 858 25.34 1 33.7 95 0.3 32.6
03:40 1029 30.39 858 25.34 1 33.8 95 0.3 32.6
03:45 1029 30.39 858 25.34 0.9 33.7 95 0.3 32.5
03:50 1029 30.39 858 25.34 0.9 33.6 95 0.2 32.4
03:55 1029 30.39 858 25.34 0.9 33.6 95 0.2 32.4
04:00 1029 30.39 858 25.34 0.8 33.4 96 0.2 32.3
04:05 1029 30.39 858 25.34 0.7 33.3 96 0.1 32.2
04:10 1029 30.39 858 25.34 0.7 33.2 96 0.1 32.1
04:15 1029 30.39 858 25.34 0.6 33.1 96 -0 32
04:20 1029 30.39 858 25.34 0.5 33 96 -0 31.9
04:25 1029 30.39 858 25.34 0.5 32.9 96 -0.1 31.9
04:30 1029 30.39 858 25.34 0.5 33 96 -0 31.9
04:35 1029 30.39 858 25.34 0.6 33 95 -0.1 31.8
04:40 1029 30.39 858 25.34 0.7 33.2 95 -0.1 31.8
04:45 1028 30.36 858 25.34 0.6 33.1 94 -0.2 31.6
04:50 1028 30.36 858 25.34 0.6 33.1 95 -0.2 31.7
04:55 1029 30.39 858 25.34 0.6 33 94 -0.3 31.5
05:00 1028 30.36 858 25.34 0.6 33.1 94 -0.2 31.6
05:05 1028 30.36 858 25.34 0.6 33.1 94 -0.2 31.6
05:10 1028 30.36 858 25.34 0.4 32.8 94 -0.4 31.2
05:15 1028 30.36 858 25.34 0.3 32.5 94 -0.6 30.9
05:20 1028 30.36 858 25.34 0.3 32.5 94 -0.6 31
05:25 1028 30.36 858 25.34 0.3 32.6 94 -0.6 30.9
05:30 1028 30.36 858 25.34 0.3 32.5 94 -0.6 30.9
05:35 1028 30.36 858 25.34 0.3 32.5 94 -0.6 30.9
05:40 1028 30.36 858 25.34 0.2 32.3 94 -0.7 30.8
05:45 1028 30.36 858 25.34 0.1 32.1 93 -0.9 30.4
05:50 1028 30.36 858 25.34 0 32 93 -0.9 30.3
05:55 1028 30.36 858 25.34 0.1 32.1 94 -0.8 30.5
06:00 1028 30.36 858 25.34 0 32 93 -0.9 30.3
06:05 1028 30.36 858 25.34 0.1 32.1 93 -1 30.3
06:10 1028 30.36 858 25.34 0.1 32.2 93 -0.9 30.4
06:15 1028 30.36 858 25.34 0.1 32.3 94 -0.8 30.6
06:20 1028 30.36 858 25.34 0.3 32.6 90 -1.2 29.8
06:25 1028 30.36 858 25.34 0.6 33 88 -1.1 30
06:30 1028 30.36 858 25.34 0.5 32.9 89 -1.1 29.9
06:35 1028 30.36 858 25.34 0.6 33.1 88 -1.1 30
06:40 1028 30.36 858 25.34 0.3 32.5 89 -1.4 29.6
06:45 1028 30.36 858 25.34 0.2 32.4 90 -1.2 29.9
06:50 1028 30.36 858 25.34 0.2 32.4 91 -1.1 29.9
06:55 1028 30.36 858 25.34 0.4 32.7 89 -1.2 29.8
07:00 1028 30.36 858 25.34 0.4 32.8 87 -1.4 29.4
07:05 1028 30.36 858 25.34 0.7 33.3 85 -1.6 29.1
07:10 1028 30.36 858 25.34 0.9 33.7 84 -1.4 29.4
07:15 1029 30.39 858 25.34 1.1 33.9 86 -1 30.1
07:20 1029 30.39 858 25.34 1 33.8 83 -1.5 29.4
07:25 1029 30.39 858 25.34 0.6 33.1 86 -1.4 29.5
07:30 1029 30.39 858 25.34 0.3 32.5 87 -1.5 29.2
07:35 1029 30.39 858 25.34 0.2 32.3 90 -1.3 29.6
07:40 1029 30.39 858 25.34 0.3 32.5 90 -1.2 29.8
07:45 1029 30.39 858 25.34 0.4 32.8 88 -1.3 29.7
07:50 1029 30.39 858 25.34 0.4 32.7 87 -1.5 29.3
07:55 1029 30.39 858 25.34 1.1 34 84 -1.4 29.5
08:00 1029 30.39 858 25.34 1.8 35.3 80 -1.2 29.8
08:05 1029 30.39 858 25.34 2 35.5 79 -1.2 29.8
08:10 1029 30.39 858 25.34 2.2 35.9 80 -1 30.2
08:15 1029 30.39 858 25.34 2.2 36 80 -0.9 30.4
08:20 1029 30.39 858 25.34 2.1 35.9 80 -0.9 30.3
08:25 1029 30.39 858 25.34 2.7 36.8 79 -0.7 30.8
08:30 1029 30.39 858 25.34 2.9 37.2 79 -0.4 31.2
08:35 1029 30.39 858 25.34 3.4 38.2 75 -0.5 31.1
08:40 1029 30.39 858 25.34 3.1 37.5 78 -0.5 31.2
08:45 1029 30.39 858 25.34 3.2 37.7 78 -0.3 31.4
08:50 1029 30.39 858 25.34 3.5 38.2 78 0 32.1
08:55 1029 30.39 858 25.34 3.7 38.6 75 -0.4 31.4
09:00 1029 30.39 858 25.34 3.9 39.1 76 0 32
09:05 1029 30.39 858 25.34 4.5 40.1 74 0.3 32.5
09:10 1029 30.39 858 25.34 4.6 40.2 74 0.2 32.4
09:15 1029 30.39 858 25.34 4.3 39.7 77 0.7 33.2
09:20 1029 30.39 858 25.34 4 39.1 79 0.6 33.2
09:25 1029 30.39 858 25.34 4.5 40.1 72 -0.1 31.8
09:30 1028 30.36 858 25.34 5.1 41.2 70 0.1 32.1
09:35 1028 30.36 858 25.34 5.7 42.3 70 0.6 33.2
09:40 1028 30.36 857 25.31 5.7 42.3 72 1.1 34
09:45 1028 30.36 858 25.34 5.1 41.2 74 0.8 33.5
09:50 1028 30.36 857 25.31 5.8 42.5 73 1.5 34.6
09:55 1028 30.36 857 25.31 5.7 42.3 71 1 33.7
10:00 1028 30.36 857 25.31 6.6 43.8 68 1 33.8
10:05 1028 30.36 857 25.31 6.4 43.5 70 1.3 34.4
10:10 1028 30.36 857 25.31 6.3 43.3 69 1 33.7
10:15 1028 30.36 857 25.31 6.7 44.1 68 1.2 34.2
10:20 1028 30.36 857 25.31 7.4 45.4 65 1.3 34.4
10:25 1028 30.36 857 25.31 7.6 45.7 66 1.8 35.2
10:30 1028 30.36 857 25.31 7.3 45.2 68 1.8 35.2
10:35 1028 30.36 857 25.31 6.8 44.2 70 1.6 34.9
10:40 1028 30.36 857 25.31 6.3 43.4 69 1.1 34
10:45 1028 30.36 857 25.31 6.9 44.4 69 1.5 34.8
10:50 1028 30.36 857 25.31 7.3 45.1 67 1.7 35.1
10:55 1028 30.36 857 25.31 7.9 46.3 64 1.6 34.9
11:00 1028 30.36 857 25.31 8.1 46.6 64 1.6 35
11:05 1028 30.36 857 25.31 7.9 46.2 65 1.7 35.1
11:10 1028 30.36 857 25.31 8.3 46.9 63 1.8 35.2
11:15 1028 30.36 857 25.31 7.9 46.3 65 1.8 35.2
11:20 1028 30.36 857 25.31 8.1 46.5 63 1.6 34.9
11:25 1028 30.36 857 25.31 8.4 47.1 66 2.4 36.4
11:30 1028 30.36 857 25.31 8.2 46.7 65 2.1 35.8
11:35 1027 30.33 857 25.31 8.2 46.7 67 2.5 36.6
11:40 1027 30.33 857 25.31 9.5 49.1 61 2.3 36.2
11:45 1027 30.33 856 25.28 8.9 48 65 2.8 37.1
11:50 1027 30.33 856 25.28 8.9 48 62 2 35.5
11:55 1027 30.33 856 25.28 9.3 48.7 61 2.1 35.8
12:00 1027 30.33 856 25.28 9.5 49 62 2.6 36.6
12:05 1027 30.33 856 25.28 9.1 48.5 62 2.3 36.1
12:10 1027 30.33 856 25.28 8.5 47.3 65 2.3 36.1
12:15 1027 30.33 856 25.28 8.9 48 60 1.6 34.8
12:20 1027 30.33 856 25.28 9.3 48.7 61 2.2 36
12:25 1027 30.33 856 25.28 9.3 48.8 61 2.2 35.9
12:30 1027 30.33 856 25.28 9.6 49.3 52 0.3 32.6
12:35 1027 30.33 856 25.28 10.5 50.8 48 -0.1 31.9
12:40 1026 30.3 856 25.28 10.5 50.9 48 -0.2 31.7
12:45 1026 30.3 856 25.28 10.8 51.5 48 0.4 32.7
12:50 1026 30.3 856 25.28 10.3 50.5 51 0.7 33.2
12:55 1026 30.3 856 25.28 10.2 50.4 50 0.4 32.6
13:00 1026 30.3 855 25.25 10.6 51 49 0.4 32.8
13:05 1026 30.3 855 25.25 10.4 50.7 51 0.7 33.3
13:10 1026 30.3 855 25.25 10.3 50.5 51 0.7 33.2
13:15 1026 30.3 855 25.25 10.6 51.1 52 1.2 34.1
13:20 1026 30.3 855 25.25 10.3 50.5 51 0.6 33.1
13:25 1026 30.3 855 25.25 10.3 50.5 51 0.7 33.2
13:30 1026 30.3 855 25.25 10.5 51 51 1 33.8
13:35 1026 30.3 855 25.25 10.6 51 47 -0.1 31.8
13:40 1026 30.3 855 25.25 10.5 50.9 50 0.7 33.2
13:45 1026 30.3 855 25.25 10.9 51.7 49 0.7 33.2
13:50 1025 30.27 855 25.25 10.9 51.7 49 0.7 33.2
13:55 1025 30.27 855 25.25 10.9 51.6 49 0.6 33.1
14:00 1026 30.3 855 25.25 11.3 52.4 46 0.2 32.3
14:05 1025 30.27 855 25.25 11.1 52 49 0.9 33.6
14:10 1025 30.27 855 25.25 11.9 53.5 45 0.6 33
14:15 1025 30.27 854 25.22 11.3 52.4 49 1 33.7
14:20 1025 30.27 854 25.22 11.7 53.1 43 -0.3 31.5
14:25 1025 30.27 854 25.22 11.8 53.2 43 -0.3 31.4
14:30 1025 30.27 854 25.22 11.7 53.1 44 -0.2 31.7
14:35 1025 30.27 854 25.22 11.7 53 45 0.2 32.4
14:40 1025 30.27 854 25.22 11.9 53.5 46 0.8 33.4
14:45 1025 30.27 854 25.22 11.3 52.4 49 1.1 33.9
14:50 1025 30.27 854 25.22 11.1 51.9 52 1.6 34.8
14:55 1025 30.27 854 25.22 11.1 52 52 1.6 34.8
15:00 1025 30.27 854 25.22 11.3 52.3 52 1.8 35.2
15:05 1025 30.27 854 25.22 10.9 51.6 52 1.5 34.6
15:10 1024 30.24 854 25.22 11.3 52.4 53 2 35.6
15:15 1024 30.24 854 25.22 11.6 52.9 52 2.1 35.7
15:20 1024 30.24 853 25.19 11.4 52.5 52 2 35.5
15:25 1024 30.24 853 25.19 11.4 52.5 51 1.7 35.1
15:30 1024 30.24 853 25.19 11.2 52.2 54 2.2 36
15:35 1024 30.24 853 25.19 11 51.8 54 2.2 36
15:40 1024 30.24 853 25.19 10.9 51.6 55 2.4 36.2
15:45 1024 30.24 853 25.19 10.9 51.7 55 2.2 35.9
15:50 1024 30.24 853 25.19 10.6 51 57 2.5 36.5
15:55 1024 30.24 853 25.19 10.4 50.8 57 2.4 36.4
16:00 1024 30.24 853 25.19 10.6 51 57 2.4 36.4
16:05 1024 30.24 853 25.19 10.9 51.5 56 2.4 36.3
16:10 1024 30.24 853 25.19 10.7 51.3 55 2.1 35.8
16:15 1024 30.24 853 25.19 10.6 51.1 55 2 35.5
16:20 1024 30.24 853 25.19 10.7 51.3 54 1.9 35.4
16:25 1024 30.24 853 25.19 11 51.8 54 2 35.6
16:30 1023 30.21 853 25.19 10.9 51.7 54 2 35.5
16:35 1023 30.21 852 25.16 11 51.7 54 2.2 35.9
16:40 1023 30.21 853 25.19 10.9 51.6 55 2.3 36.2
16:45 1023 30.21 853 25.19 11 51.8 55 2.4 36.3
16:50 1023 30.21 852 25.16 11 51.8 54 2.2 35.9
16:55 1023 30.21 852 25.16 10.8 51.4 55 2.3 36.1
17:00 1023 30.21 852 25.16 11.1 52 53 1.9 35.5
17:05 1023 30.21 852 25.16 11.1 52 52 1.8 35.2
17:10 1023 30.21 852 25.16 11.1 51.9 53 1.9 35.3
17:15 1023 30.21 852 25.16 11.1 52 52 1.7 35.1
17:20 1023 30.21 852 25.16 11.1 52 53 1.9 35.4
17:25 1023 30.21 852 25.16 11.1 52 52 1.8 35.2
17:30 1023 30.21 852 25.16 10.9 51.5 52 1.6 34.8
17:35 1023 30.21 852 25.16 11 51.8 52 1.7 35
17:40 1023 30.21 852 25.16 10.9 51.5 53 1.8 35.2
17:45 1023 30.21 852 25.16 10.8 51.4 53 1.7 35.1
17:50 1022 30.18 852 25.16 10.8 51.4 54 1.8 35.3
17:55 1022 30.18 852 25.16 11.1 51.9 53 1.9 35.5
18:00 1022 30.18 852 25.16 10.9 51.5 54 1.9 35.4
18:05 1022 30.18 852 25.16 10.8 51.4 54 1.8 35.3
18:10 1022 30.18 852 25.16 10.7 51.2 55 2.2 35.9
18:15 1022 30.18 852 25.16 10.7 51.3 56 2.3 36.2
18:20 1022 30.18 851 25.13 10.6 51.1 56 2.2 35.9
18:25 1022 30.18 852 25.16 10.4 50.7 57 2.3 36.2
18:30 1022 30.18 852 25.16 10.1 50.2 56 1.8 35.2
18:35 1022 30.18 851 25.13 10 49.9 56 1.5 34.7
18:40 1022 30.18 852 25.16 9.8 49.6 59 2.1 35.8
18:45 1022 30.18 851 25.13 9.5 49.1 62 2.6 36.7
18:50 1022 30.18 851 25.13 9.3 48.8 64 3 37.4
18:55 1022 30.18 851 25.13 9.2 48.5 65 3 37.4
19:00 1022 30.18 851 25.13 9 48.2 64 2.7 36.8
19:05 1022 30.18 851 25.13 8.9 48 64 2.6 36.6
19:10 1022 30.18 851 25.13 8.7 47.7 66 2.7 36.9
19:15 1022 30.18 851 25.13 8.6 47.5 67 2.7 36.9
19:20 1022 30.18 851 25.13 8.5 47.2 68 2.8 37.1
19:25 1022 30.18 851 25.13 8.4 47.1 67 2.7 36.8
19:30 1022 30.18 851 25.13 8.3 47 68 2.8 37.1
19:35 1022 30.18 851 25.13 8.2 46.7 69 2.9 37.2
19:40 1022 30.18 851 25.13 8.1 46.5 70 2.9 37.2
19:45 1022 30.18 851 25.13 8 46.4 70 2.9 37.2
19:50 1022 30.18 851 25.13 7.9 46.3 70 2.9 37.2
19:55 1022 30.18 851 25.13 7.9 46.2 71 2.9 37.3
20:00 1022 30.18 851 25.13 7.8 46.1 71 3 37.4
20:05 1022 30.18 851 25.13 7.7 45.9 72 3 37.4
20:10 1022 30.18 851 25.13 7.7 45.8 72 3 37.4
20:15 1022 30.18 851 25.13 7.6 45.6 73 3 37.4
20:20 1022 30.18 851 25.13 7.5 45.4 73 3 37.4
20:25 1022 30.18 851 25.13 7.4 45.4 74 3.1 37.6
20:30 1022 30.18 851 25.13 7.4 45.3 74 3.1 37.5
20:35 1022 30.18 851 25.13 7.3 45.1 74 3.1 37.5
20:40 1022 30.18 851 25.13 7.2 45 75 3 37.4
20:45 1022 30.18 851 25.13 7.2 44.9 75 3 37.5
20:50 1022 30.18 851 25.13 7.2 44.9 75 3 37.4
20:55 1022 30.18 851 25.13 7.2 44.9 75 2.9 37.3
21:00 1021 30.15 851 25.13 7.1 44.8 74 2.9 37.2
21:05 1021 30.15 851 25.13 7.1 44.8 75 2.9 37.2
21:10 1021 30.15 851 25.13 7 44.6 75 2.9 37.2
21:15 1021 30.15 851 25.13 7 44.7 75 3 37.4
21:20 1021 30.15 851 25.13 7 44.6 75 2.9 37.3
21:25 1021 30.15 851 25.13 7 44.7 75 3 37.4
21:30 1021 30.15 851 25.13 6.9 44.5 75 2.9 37.2
21:35 1021 30.15 851 25.13 6.9 44.3 76 2.9 37.2
21:40 1021 30.15 851 25.13 6.8 44.3 75 2.8 37
21:45 1021 30.15 851 25.13 6.9 44.4 75 2.8 37
21:50 1021 30.15 851 25.13 6.8 44.3 75 2.7 36.9
21:55 1021 30.15 851 25.13 6.8 44.3 75 2.7 36.9
22:00 1021 30.15 851 25.13 6.8 44.2 75 2.6 36.8
22:05 1021 30.15 851 25.13 6.7 44.1 75 2.7 36.8
22:10 1021 30.15 851 25.13 6.7 44.1 75 2.7 36.8
22:15 1022 30.18 851 25.13 6.8 44.2 75 2.6 36.7
22:20 1022 30.18 851 25.13 6.8 44.2 75 2.7 36.8
22:25 1021 30.15 851 25.13 6.7 44 75 2.6 36.7
22:30 1021 30.15 851 25.13 6.6 44 75 2.5 36.6
22:35 1021 30.15 851 25.13 6.6 43.8 75 2.5 36.4
22:40 1021 30.15 851 25.13 6.4 43.6 75 2.4 36.3
22:45 1021 30.15 850 25.1 6.3 43.4 75 2.3 36.1
22:50 1021 30.15 850 25.1 6.3 43.3 75 2.2 36
22:55 1021 30.15 850 25.1 6.2 43.2 75 2.1 35.9
23:00 1021 30.15 850 25.1 6.2 43.2 75 2.2 35.9
23:05 1021 30.15 850 25.1 6.3 43.3 75 2.2 35.9
23:10 1021 30.15 850 25.1 6.3 43.3 75 2.2 36
23:15 1021 30.15 850 25.1 6.1 43 76 2.1 35.8
23:20 1021 30.15 850 25.1 6.1 42.9 75 2 35.6
23:25 1021 30.15 850 25.1 6.2 43.1 75 2 35.7
23:30 1021 30.15 850 25.1 6 42.9 75 2 35.7
23:35 1021 30.15 850 25.1 6.1 42.9 75 2 35.5
23:40 1021 30.15 850 25.1 6 42.7 76 2 35.6
23:45 1021 30.15 850 25.1 5.9 42.6 76 2 35.6
23:50 1021 30.15 850 25.1 5.9 42.5 76 2 35.6
23:55 1021 30.15 850 25.1 5.8 42.4 77 2 35.6
24:00 1021 30.15 850 25.1 5.6 42.1 78 2 35.7